createdAt,value
2022-11-21T00:02:28.234Z,14.67
2022-11-21T00:10:49.710Z,16.07
2022-11-21T00:14:58.292Z,15.57
2022-11-21T00:19:06.867Z,16.67
2022-11-21T00:23:15.441Z,16.07
2022-11-21T00:27:24.014Z,16.53
2022-11-21T00:31:32.803Z,16.70
2022-11-21T00:35:43.111Z,17.63
2022-11-21T00:39:51.702Z,13.10
2022-11-21T00:44:00.318Z,17.63
2022-11-21T00:48:28.233Z,15.73
2022-11-21T00:52:37.860Z,17.87
2022-11-21T00:56:46.380Z,15.80
2022-11-21T01:01:10.128Z,14.40
2022-11-21T01:05:18.801Z,15.97
2022-11-21T01:09:28.682Z,17.37
2022-11-21T01:13:37.891Z,16.30
2022-11-21T01:17:46.467Z,16.43
2022-11-21T01:21:55.004Z,16.23
2022-11-21T01:26:08.173Z,16.40
2022-11-21T01:30:17.372Z,16.80
2022-11-21T01:34:26.126Z,14.30
2022-11-21T01:38:35.306Z,16.80
2022-11-21T01:43:05.128Z,16.73
2022-11-21T01:47:32.949Z,15.70
2022-11-21T01:52:05.523Z,15.13
2022-11-21T01:56:15.150Z,15.80
2022-11-21T02:00:26.700Z,15.23
2022-11-21T02:04:55.160Z,17.40
2022-11-21T02:09:05.613Z,14.58
2022-11-21T02:13:14.228Z,15.60
2022-11-21T02:17:22.936Z,15.90
2022-11-21T02:21:34.673Z,17.20
2022-11-21T02:25:44.640Z,15.63
2022-11-21T02:29:53.363Z,18.97
2022-11-21T02:34:01.889Z,17.70
2022-11-21T02:38:22.019Z,14.87
2022-11-21T02:42:39.342Z,16.90
2022-11-21T02:46:50.292Z,17.97
2022-11-21T02:50:58.849Z,16.03
2022-11-21T02:55:08.578Z,18.47
2022-11-21T02:59:17.214Z,19.53
2022-11-21T03:03:25.703Z,18.00
2022-11-21T03:07:34.405Z,18.73
2022-11-21T03:11:42.997Z,15.03
2022-11-21T03:15:52.024Z,15.13
2022-11-21T03:20:00.633Z,15.60
2022-11-21T03:24:09.497Z,15.43
2022-11-21T03:28:18.125Z,15.33
2022-11-21T03:32:26.834Z,12.90
2022-11-21T03:36:35.421Z,13.43
2022-11-21T03:40:44.030Z,15.63
2022-11-21T03:44:52.640Z,15.30
2022-11-21T03:49:01.516Z,14.17
2022-11-21T03:53:10.101Z,14.70
2022-11-21T03:57:18.731Z,13.70
2022-11-21T04:01:30.255Z,15.53
2022-11-21T04:05:37.766Z,12.70
2022-11-21T04:09:46.357Z,11.77
2022-11-21T04:13:54.985Z,9.37
2022-11-21T04:18:03.561Z,13.80
2022-11-21T04:22:12.243Z,10.73
2022-11-21T04:26:20.873Z,13.73
2022-11-21T04:30:30.329Z,10.83
2022-11-21T04:34:58.305Z,11.40
2022-11-21T04:39:08.725Z,10.70
2022-11-21T04:43:17.015Z,12.80
2022-11-21T04:47:25.623Z,10.27
2022-11-21T04:51:34.250Z,11.90
2022-11-21T04:55:42.881Z,13.20
2022-11-21T04:59:51.512Z,12.47
2022-11-21T05:04:12.455Z,12.90
2022-11-21T05:08:21.053Z,10.87
2022-11-21T05:12:47.909Z,13.03
2022-11-21T05:16:56.539Z,11.67
2022-11-21T05:21:05.478Z,12.50
2022-11-21T05:25:14.102Z,9.83
2022-11-21T05:29:27.937Z,10.77
2022-11-21T05:33:33.188Z,11.77
2022-11-21T05:37:41.832Z,11.57
2022-11-21T05:41:50.460Z,12.27
2022-11-21T05:46:11.329Z,13.40
2022-11-21T05:50:20.006Z,12.10
2022-11-21T05:54:28.810Z,10.53
2022-11-21T05:58:57.641Z,11.77
2022-11-21T06:03:28.727Z,14.17
2022-11-21T06:07:37.604Z,13.27
2022-11-21T06:11:46.260Z,16.50
2022-11-21T06:15:57.894Z,12.63
2022-11-21T06:20:07.348Z,13.60
2022-11-21T06:24:28.885Z,15.20
2022-11-21T06:28:39.690Z,12.97
2022-11-21T06:32:48.304Z,11.97
2022-11-21T06:36:56.875Z,14.47
2022-11-21T06:41:07.712Z,12.20
2022-11-21T06:45:16.602Z,11.60
2022-11-21T06:49:25.422Z,13.00
2022-11-21T06:53:36.098Z,12.40
2022-11-21T06:58:04.081Z,14.67
2022-11-21T07:02:14.226Z,13.53
2022-11-21T07:06:23.781Z,15.20
2022-11-21T07:10:32.774Z,14.80
2022-11-21T07:14:41.379Z,15.20
2022-11-21T07:18:50.196Z,11.33
2022-11-21T07:23:18.032Z,14.87
2022-11-21T07:27:26.623Z,17.67
2022-11-21T07:31:35.232Z,14.87
2022-11-21T07:35:45.407Z,16.67
2022-11-21T07:39:54.377Z,13.50
2022-11-21T07:44:03.165Z,13.60
2022-11-21T07:48:12.943Z,12.30
2022-11-21T07:52:21.547Z,15.00
2022-11-21T07:56:30.099Z,11.50
2022-11-21T08:00:40.779Z,15.93
2022-11-21T08:04:50.198Z,14.80
2022-11-21T08:08:58.697Z,17.30
2022-11-21T08:13:07.547Z,16.27
2022-11-21T08:17:17.795Z,13.27
2022-11-21T08:21:27.098Z,21.23
2022-11-21T08:25:38.153Z,16.07
2022-11-21T08:29:47.462Z,17.83
2022-11-21T08:33:59.110Z,17.80
2022-11-21T08:38:08.961Z,16.30
2022-11-21T08:42:17.487Z,16.57
2022-11-21T08:46:30.782Z,16.67
2022-11-21T08:50:39.664Z,17.17
2022-11-21T08:54:48.386Z,14.73
2022-11-21T08:59:07.581Z,14.67
2022-11-21T09:03:21.751Z,17.20
2022-11-21T09:07:26.509Z,16.70
2022-11-21T09:11:36.749Z,22.93
2022-11-21T09:16:03.477Z,20.50
2022-11-21T09:20:12.356Z,15.57
2022-11-21T09:24:21.134Z,19.77
2022-11-21T09:28:30.274Z,15.13
2022-11-21T09:32:40.345Z,14.60
2022-11-21T09:36:48.892Z,33.07
2022-11-21T09:41:36.515Z,16.60
2022-11-21T09:46:06.146Z,18.50
2022-11-21T09:50:35.538Z,15.00
2022-11-21T09:54:51.656Z,12.67
2022-11-21T09:59:24.039Z,19.27
2022-11-21T10:03:36.037Z,14.53
2022-11-21T10:07:45.548Z,15.10
2022-11-21T10:12:34.590Z,11.60
2022-11-21T10:17:07.995Z,9.83
2022-11-21T10:21:22.624Z,11.37
2022-11-21T10:25:42.232Z,10.33
2022-11-21T10:30:08.994Z,11.57
2022-11-21T10:34:20.693Z,10.40
2022-11-21T10:38:30.013Z,10.13
2022-11-21T10:42:43.298Z,10.50
2022-11-21T10:47:02.554Z,10.33
2022-11-21T10:51:20.080Z,9.13
2022-11-21T10:55:28.639Z,8.27
2022-11-21T10:59:37.257Z,9.63
2022-11-21T11:04:06.925Z,8.57
2022-11-21T11:08:14.173Z,9.87
2022-11-21T11:12:25.768Z,7.17
2022-11-21T11:16:41.543Z,7.43
2022-11-21T11:20:47.937Z,7.23
2022-11-21T11:25:00.413Z,6.17
2022-11-21T11:29:12.873Z,5.90
2022-11-21T11:33:39.524Z,7.13
2022-11-21T11:37:54.080Z,6.20
2022-11-21T11:42:53.923Z,6.70
2022-11-21T11:47:26.206Z,7.27
2022-11-21T11:51:38.129Z,7.17
2022-11-21T11:55:50.026Z,6.13
2022-11-21T12:00:26.614Z,6.17
2022-11-21T12:04:38.329Z,6.10
2022-11-21T12:09:02.323Z,6.00
2022-11-21T12:13:14.014Z,6.13
2022-11-21T12:17:47.065Z,6.97
2022-11-21T12:21:57.209Z,5.90
2022-11-21T12:26:31.596Z,6.00
2022-11-21T12:31:01.065Z,5.83
2022-11-21T12:35:31.007Z,5.70
2022-11-21T12:40:00.761Z,5.77
2022-11-21T12:44:30.490Z,6.10
2022-11-21T12:53:47.447Z,5.20
2022-11-21T12:57:59.154Z,4.33
2022-11-21T13:02:22.553Z,5.23
2022-11-21T13:06:34.204Z,3.90
2022-11-21T13:10:45.886Z,5.03
2022-11-21T13:15:13.973Z,4.27
2022-11-21T13:19:26.115Z,3.13
2022-11-21T13:23:42.833Z,3.53
2022-11-21T13:27:51.467Z,3.73
2022-11-21T13:31:59.997Z,4.17
2022-11-21T13:36:32.481Z,3.20
2022-11-21T13:40:46.468Z,3.20
2022-11-21T13:44:55.693Z,3.83
2022-11-21T13:49:07.304Z,3.73
2022-11-21T13:53:31.266Z,3.43
2022-11-21T13:58:09.895Z,3.80
2022-11-21T14:02:33.577Z,4.07
2022-11-21T14:06:43.761Z,3.63
2022-11-21T14:10:53.525Z,3.20
2022-11-21T14:15:06.404Z,4.10
2022-11-21T14:19:28.079Z,4.07
2022-11-21T14:23:38.550Z,4.60
2022-11-21T14:27:50.553Z,4.70
2022-11-21T14:31:59.286Z,3.93
2022-11-21T14:36:23.045Z,3.73
2022-11-21T14:40:31.683Z,4.10
2022-11-21T14:44:40.230Z,4.47
2022-11-21T14:48:49.375Z,5.30
2022-11-21T14:53:17.335Z,5.30
2022-11-21T14:57:28.915Z,5.40
2022-11-21T15:01:37.559Z,5.33
2022-11-21T15:06:02.175Z,4.50
2022-11-21T15:10:27.296Z,4.30
2022-11-21T15:14:16.291Z,6.20
2022-11-21T15:18:28.640Z,5.40
2022-11-21T15:22:39.777Z,4.70
2022-11-21T15:26:48.478Z,5.20
2022-11-21T15:31:21.992Z,7.07
2022-11-21T15:35:51.305Z,6.20
2022-11-21T15:40:00.126Z,6.90
2022-11-21T15:44:11.787Z,6.20
2022-11-21T15:48:40.640Z,5.80
2022-11-21T15:52:50.933Z,4.27
2022-11-21T15:56:59.468Z,5.13
2022-11-21T16:01:13.933Z,4.00
2022-11-21T16:05:22.476Z,4.40
2022-11-21T16:09:31.688Z,3.37
2022-11-21T16:13:40.220Z,4.20
2022-11-21T16:17:52.641Z,3.70
2022-11-21T16:22:01.448Z,3.30
2022-11-21T16:26:12.110Z,3.30
2022-11-21T16:30:20.749Z,3.60
2022-11-21T16:34:29.343Z,4.50
2022-11-21T16:38:37.981Z,4.07
2022-11-21T16:42:46.996Z,3.50
2022-11-21T16:46:55.976Z,4.37
2022-11-21T16:51:18.981Z,3.10
2022-11-21T16:55:28.178Z,3.37
2022-11-21T16:59:36.718Z,3.53
2022-11-21T17:03:47.556Z,3.67
2022-11-21T17:07:57.660Z,4.03
2022-11-21T17:12:06.431Z,3.13
2022-11-21T17:16:19.900Z,2.63
2022-11-21T17:20:28.620Z,4.20
2022-11-21T17:24:37.192Z,2.67
2022-11-21T17:28:47.836Z,2.60
2022-11-21T17:32:56.395Z,2.70
2022-11-21T17:37:04.988Z,2.87
2022-11-21T17:41:14.096Z,3.60
2022-11-21T17:45:22.691Z,3.10
2022-11-21T17:49:32.855Z,3.30
2022-11-21T17:53:43.887Z,3.30
2022-11-21T17:57:52.468Z,3.33
2022-11-21T18:02:02.465Z,3.53
2022-11-21T18:06:13.310Z,3.53
2022-11-21T18:10:42.179Z,4.80
2022-11-21T18:14:32.140Z,3.30
2022-11-21T18:18:41.082Z,3.17
2022-11-21T18:22:49.873Z,3.63
2022-11-21T18:26:58.511Z,3.40
2022-11-21T18:31:10.452Z,3.80
2022-11-21T18:35:38.388Z,3.90
2022-11-21T18:39:47.018Z,4.47
2022-11-21T18:44:20.277Z,4.47
2022-11-21T18:48:27.697Z,4.40
2022-11-21T18:52:38.924Z,3.67
2022-11-21T18:57:06.515Z,4.23
2022-11-21T19:01:17.733Z,3.50
2022-11-21T19:05:26.313Z,3.40
2022-11-21T19:09:54.901Z,5.83
2022-11-21T19:14:03.631Z,4.63
2022-11-21T19:18:13.057Z,3.67
2022-11-21T19:22:23.129Z,3.90
2022-11-21T19:26:32.692Z,3.73
2022-11-21T19:30:41.676Z,3.63
2022-11-21T19:34:50.207Z,2.80
2022-11-21T19:38:58.885Z,3.57
2022-11-21T19:43:07.414Z,3.90
2022-11-21T19:47:15.982Z,3.10
2022-11-21T19:51:27.228Z,3.53
2022-11-21T19:55:36.701Z,3.43
2022-11-21T19:59:46.975Z,4.10
2022-11-21T20:03:58.343Z,4.10
2022-11-21T20:08:15.279Z,3.20
2022-11-21T20:12:17.384Z,3.43
2022-11-21T20:16:28.485Z,4.77
2022-11-21T20:20:37.067Z,4.17
2022-11-21T20:24:51.442Z,4.75
2022-11-21T20:28:56.951Z,5.20
2022-11-21T20:33:10.986Z,3.80
2022-11-21T20:37:15.969Z,3.50
2022-11-21T20:41:27.544Z,4.00
2022-11-21T20:46:08.043Z,3.37
2022-11-21T20:49:46.464Z,4.10
2022-11-21T20:54:01.549Z,2.97
2022-11-21T20:58:05.665Z,3.80
2022-11-21T21:02:14.804Z,3.37
2022-11-21T21:06:26.862Z,3.10
2022-11-21T21:10:58.317Z,4.40
2022-11-21T21:14:45.999Z,3.57
2022-11-21T21:18:56.208Z,3.67
2022-11-21T21:23:04.810Z,4.15
2022-11-21T21:27:13.335Z,3.80
2022-11-21T21:31:23.065Z,3.97
2022-11-21T21:35:31.720Z,4.23
2022-11-21T21:39:40.452Z,3.30
2022-11-21T21:43:53.382Z,4.00
2022-11-21T21:48:01.908Z,4.27
2022-11-21T21:52:11.456Z,4.30
2022-11-21T21:56:21.452Z,3.83
2022-11-21T22:00:30.047Z,3.70
2022-11-21T22:04:38.674Z,4.10
2022-11-21T22:08:48.670Z,3.40
2022-11-21T22:12:57.245Z,3.80
2022-11-21T22:17:05.802Z,2.50
2022-11-21T22:21:19.684Z,4.03
2022-11-21T22:25:47.625Z,3.97
2022-11-21T22:29:56.264Z,3.67
2022-11-21T22:34:05.085Z,3.13
2022-11-21T22:38:14.228Z,3.50
2022-11-21T22:42:22.854Z,3.60
2022-11-21T22:46:33.542Z,4.47
2022-11-21T22:50:45.539Z,4.73
2022-11-21T22:54:54.123Z,3.57
2022-11-21T22:59:02.798Z,3.03
2022-11-21T23:03:11.371Z,3.60
2022-11-21T23:07:19.983Z,4.43
2022-11-21T23:11:36.181Z,3.50
2022-11-21T23:16:01.727Z,3.67
2022-11-21T23:20:11.476Z,3.93
2022-11-21T23:24:20.069Z,3.37
2022-11-21T23:28:28.899Z,3.80
2022-11-21T23:32:37.426Z,4.30
2022-11-21T23:36:46.054Z,3.47
2022-11-21T23:40:54.774Z,4.57
2022-11-21T23:45:22.752Z,3.63
2022-11-21T23:49:31.576Z,3.20
2022-11-21T23:53:40.176Z,3.00
2022-11-21T23:57:49.420Z,3.27
